sensor_id;sensor_type;location;lat;lon;timestamp;P1;durP1;ratioP1;P2;durP2;ratioP2
37593;SDS011;23441;50.856;6.076;2022-08-02T00:01:52;0.20;;;0.20;;
37593;SDS011;23441;50.856;6.076;2022-08-02T00:04:18;0.20;;;0.20;;
37593;SDS011;23441;50.856;6.076;2022-08-02T00:06:44;0.20;;;0.20;;
37593;SDS011;23441;50.856;6.076;2022-08-02T00:09:10;0.20;;;0.20;;
37593;SDS011;23441;50.856;6.076;2022-08-02T00:11:36;0.20;;;0.20;;
37593;SDS011;23441;50.856;6.076;2022-08-02T00:14:02;0.20;;;0.20;;
37593;SDS011;23441;50.856;6.076;2022-08-02T00:16:28;0.20;;;0.20;;
37593;SDS011;23441;50.856;6.076;2022-08-02T00:18:54;0.20;;;0.20;;
37593;SDS011;23441;50.856;6.076;2022-08-02T00:21:20;0.20;;;0.20;;
37593;SDS011;23441;50.856;6.076;2022-08-02T00:23:46;0.20;;;0.20;;
37593;SDS011;23441;50.856;6.076;2022-08-02T00:26:12;0.20;;;0.20;;
37593;SDS011;23441;50.856;6.076;2022-08-02T00:28:38;0.20;;;0.20;;
37593;SDS011;23441;50.856;6.076;2022-08-02T00:31:04;0.20;;;0.20;;
37593;SDS011;23441;50.856;6.076;2022-08-02T00:33:30;0.20;;;0.20;;
37593;SDS011;23441;50.856;6.076;2022-08-02T00:35:56;0.20;;;0.20;;
37593;SDS011;23441;50.856;6.076;2022-08-02T00:38:22;0.20;;;0.20;;
37593;SDS011;23441;50.856;6.076;2022-08-02T00:40:48;0.20;;;0.20;;
37593;SDS011;23441;50.856;6.076;2022-08-02T00:43:15;0.20;;;0.20;;
37593;SDS011;23441;50.856;6.076;2022-08-02T00:45:42;0.20;;;0.20;;
37593;SDS011;23441;50.856;6.076;2022-08-02T00:48:09;0.20;;;0.20;;
37593;SDS011;23441;50.856;6.076;2022-08-02T00:50:37;0.20;;;0.20;;
37593;SDS011;23441;50.856;6.076;2022-08-02T00:53:04;0.20;;;0.20;;
37593;SDS011;23441;50.856;6.076;2022-08-02T00:55:33;0.20;;;0.20;;
37593;SDS011;23441;50.856;6.076;2022-08-02T00:58:00;0.20;;;0.20;;
37593;SDS011;23441;50.856;6.076;2022-08-02T01:00:26;0.20;;;0.20;;
37593;SDS011;23441;50.856;6.076;2022-08-02T01:02:52;0.20;;;0.20;;
37593;SDS011;23441;50.856;6.076;2022-08-02T01:05:18;0.20;;;0.20;;
37593;SDS011;23441;50.856;6.076;2022-08-02T01:07:44;0.20;;;0.20;;
37593;SDS011;23441;50.856;6.076;2022-08-02T01:10:10;0.20;;;0.20;;
37593;SDS011;23441;50.856;6.076;2022-08-02T01:12:37;0.20;;;0.20;;
37593;SDS011;23441;50.856;6.076;2022-08-02T01:15:09;0.20;;;0.20;;
37593;SDS011;23441;50.856;6.076;2022-08-02T01:26:46;0.20;;;0.20;;
37593;SDS011;23441;50.856;6.076;2022-08-02T01:29:28;0.20;;;0.20;;
37593;SDS011;23441;50.856;6.076;2022-08-02T01:34:52;0.20;;;0.20;;
37593;SDS011;23441;50.856;6.076;2022-08-02T01:40:43;0.20;;;0.20;;
37593;SDS011;23441;50.856;6.076;2022-08-02T01:43:11;0.20;;;0.20;;
37593;SDS011;23441;50.856;6.076;2022-08-02T01:45:39;0.20;;;0.20;;
37593;SDS011;23441;50.856;6.076;2022-08-02T01:48:07;0.20;;;0.20;;
37593;SDS011;23441;50.856;6.076;2022-08-02T01:50:35;0.22;;;0.22;;
37593;SDS011;23441;50.856;6.076;2022-08-02T01:53:03;0.20;;;0.20;;
37593;SDS011;23441;50.856;6.076;2022-08-02T01:58:11;0.20;;;0.20;;
37593;SDS011;23441;50.856;6.076;2022-08-02T02:00:41;0.20;;;0.20;;
37593;SDS011;23441;50.856;6.076;2022-08-02T02:03:09;0.20;;;0.20;;
37593;SDS011;23441;50.856;6.076;2022-08-02T02:05:39;0.20;;;0.20;;
37593;SDS011;23441;50.856;6.076;2022-08-02T02:08:07;0.20;;;0.20;;
37593;SDS011;23441;50.856;6.076;2022-08-02T02:10:35;0.20;;;0.20;;
37593;SDS011;23441;50.856;6.076;2022-08-02T02:13:05;0.20;;;0.20;;
37593;SDS011;23441;50.856;6.076;2022-08-02T02:15:39;0.20;;;0.20;;
37593;SDS011;23441;50.856;6.076;2022-08-02T02:18:12;0.20;;;0.20;;
37593;SDS011;23441;50.856;6.076;2022-08-02T02:20:43;0.20;;;0.20;;
37593;SDS011;23441;50.856;6.076;2022-08-02T02:23:09;0.20;;;0.20;;
37593;SDS011;23441;50.856;6.076;2022-08-02T02:25:37;0.20;;;0.20;;
37593;SDS011;23441;50.856;6.076;2022-08-02T02:28:07;0.20;;;0.20;;
37593;SDS011;23441;50.856;6.076;2022-08-02T02:30:46;0.20;;;0.20;;
37593;SDS011;23441;50.856;6.076;2022-08-02T02:33:19;0.20;;;0.20;;
37593;SDS011;23441;50.856;6.076;2022-08-02T02:35:47;0.20;;;0.20;;
37593;SDS011;23441;50.856;6.076;2022-08-02T02:38:16;0.20;;;0.20;;
37593;SDS011;23441;50.856;6.076;2022-08-02T02:40:45;0.20;;;0.20;;
37593;SDS011;23441;50.856;6.076;2022-08-02T02:43:12;0.20;;;0.20;;
37593;SDS011;23441;50.856;6.076;2022-08-02T02:45:39;0.20;;;0.20;;
37593;SDS011;23441;50.856;6.076;2022-08-02T02:48:07;0.20;;;0.20;;
37593;SDS011;23441;50.856;6.076;2022-08-02T02:50:35;0.20;;;0.20;;
37593;SDS011;23441;50.856;6.076;2022-08-02T02:53:02;0.20;;;0.20;;
37593;SDS011;23441;50.856;6.076;2022-08-02T02:55:31;0.20;;;0.20;;
37593;SDS011;23441;50.856;6.076;2022-08-02T02:57:57;0.20;;;0.20;;
37593;SDS011;23441;50.856;6.076;2022-08-02T03:00:24;0.20;;;0.20;;
37593;SDS011;23441;50.856;6.076;2022-08-02T03:03:09;0.20;;;0.20;;
37593;SDS011;23441;50.856;6.076;2022-08-02T03:05:36;0.20;;;0.20;;
37593;SDS011;23441;50.856;6.076;2022-08-02T03:08:02;0.20;;;0.20;;
37593;SDS011;23441;50.856;6.076;2022-08-02T03:10:29;0.20;;;0.20;;
37593;SDS011;23441;50.856;6.076;2022-08-02T03:12:55;0.20;;;0.20;;
37593;SDS011;23441;50.856;6.076;2022-08-02T03:15:22;0.20;;;0.20;;
37593;SDS011;23441;50.856;6.076;2022-08-02T03:17:52;0.20;;;0.20;;
37593;SDS011;23441;50.856;6.076;2022-08-02T03:20:18;0.20;;;0.20;;
37593;SDS011;23441;50.856;6.076;2022-08-02T03:22:47;0.20;;;0.20;;
37593;SDS011;23441;50.856;6.076;2022-08-02T03:25:14;0.20;;;0.20;;
37593;SDS011;23441;50.856;6.076;2022-08-02T03:27:40;0.22;;;0.22;;
37593;SDS011;23441;50.856;6.076;2022-08-02T03:30:07;0.20;;;0.20;;
37593;SDS011;23441;50.856;6.076;2022-08-02T03:32:37;0.20;;;0.20;;
37593;SDS011;23441;50.856;6.076;2022-08-02T03:35:05;0.20;;;0.20;;
37593;SDS011;23441;50.856;6.076;2022-08-02T03:37:35;0.20;;;0.20;;
37593;SDS011;23441;50.856;6.076;2022-08-02T03:40:02;0.20;;;0.20;;
37593;SDS011;23441;50.856;6.076;2022-08-02T03:42:32;0.20;;;0.20;;
37593;SDS011;23441;50.856;6.076;2022-08-02T03:44:59;0.20;;;0.20;;
37593;SDS011;23441;50.856;6.076;2022-08-02T03:47:27;0.20;;;0.20;;
37593;SDS011;23441;50.856;6.076;2022-08-02T03:49:53;0.20;;;0.20;;
37593;SDS011;23441;50.856;6.076;2022-08-02T03:52:20;0.20;;;0.20;;
37593;SDS011;23441;50.856;6.076;2022-08-02T03:54:48;0.20;;;0.20;;
37593;SDS011;23441;50.856;6.076;2022-08-02T03:57:14;0.20;;;0.20;;
37593;SDS011;23441;50.856;6.076;2022-08-02T03:59:42;0.20;;;0.20;;
37593;SDS011;23441;50.856;6.076;2022-08-02T04:02:10;0.20;;;0.20;;
37593;SDS011;23441;50.856;6.076;2022-08-02T04:04:38;0.20;;;0.20;;
37593;SDS011;23441;50.856;6.076;2022-08-02T04:07:04;0.20;;;0.20;;
37593;SDS011;23441;50.856;6.076;2022-08-02T04:09:30;0.20;;;0.20;;
37593;SDS011;23441;50.856;6.076;2022-08-02T04:11:56;0.20;;;0.20;;
37593;SDS011;23441;50.856;6.076;2022-08-02T04:14:22;0.20;;;0.20;;
37593;SDS011;23441;50.856;6.076;2022-08-02T04:16:52;0.20;;;0.20;;
37593;SDS011;23441;50.856;6.076;2022-08-02T04:22:03;0.20;;;0.20;;
37593;SDS011;23441;50.856;6.076;2022-08-02T04:24:40;0.20;;;0.20;;
37593;SDS011;23441;50.856;6.076;2022-08-02T04:27:12;0.20;;;0.20;;
37593;SDS011;23441;50.856;6.076;2022-08-02T04:29:40;0.20;;;0.20;;
37593;SDS011;23441;50.856;6.076;2022-08-02T04:32:07;0.20;;;0.20;;
37593;SDS011;23441;50.856;6.076;2022-08-02T04:34:33;0.20;;;0.20;;
37593;SDS011;23441;50.856;6.076;2022-08-02T04:36:59;0.20;;;0.20;;
37593;SDS011;23441;50.856;6.076;2022-08-02T04:39:26;0.20;;;0.20;;
37593;SDS011;23441;50.856;6.076;2022-08-02T04:41:52;0.20;;;0.20;;
37593;SDS011;23441;50.856;6.076;2022-08-02T04:44:18;0.20;;;0.20;;
37593;SDS011;23441;50.856;6.076;2022-08-02T04:46:44;0.20;;;0.20;;
37593;SDS011;23441;50.856;6.076;2022-08-02T04:49:10;0.20;;;0.20;;
37593;SDS011;23441;50.856;6.076;2022-08-02T04:51:37;0.20;;;0.20;;
37593;SDS011;23441;50.856;6.076;2022-08-02T04:54:08;0.20;;;0.20;;
37593;SDS011;23441;50.856;6.076;2022-08-02T04:56:35;0.20;;;0.20;;
37593;SDS011;23441;50.856;6.076;2022-08-02T04:59:04;0.20;;;0.20;;
37593;SDS011;23441;50.856;6.076;2022-08-02T05:01:30;0.20;;;0.20;;
37593;SDS011;23441;50.856;6.076;2022-08-02T05:03:56;0.20;;;0.20;;
37593;SDS011;23441;50.856;6.076;2022-08-02T05:06:22;0.20;;;0.20;;
37593;SDS011;23441;50.856;6.076;2022-08-02T05:08:49;0.20;;;0.20;;
37593;SDS011;23441;50.856;6.076;2022-08-02T05:11:15;0.20;;;0.20;;
37593;SDS011;23441;50.856;6.076;2022-08-02T05:13:41;0.20;;;0.20;;
37593;SDS011;23441;50.856;6.076;2022-08-02T05:16:08;0.20;;;0.20;;
37593;SDS011;23441;50.856;6.076;2022-08-02T05:18:34;0.20;;;0.20;;
37593;SDS011;23441;50.856;6.076;2022-08-02T05:20:59;0.20;;;0.20;;
37593;SDS011;23441;50.856;6.076;2022-08-02T05:23:26;0.20;;;0.20;;
37593;SDS011;23441;50.856;6.076;2022-08-02T05:25:51;0.20;;;0.20;;
37593;SDS011;23441;50.856;6.076;2022-08-02T05:28:17;0.20;;;0.20;;
37593;SDS011;23441;50.856;6.076;2022-08-02T05:30:43;0.20;;;0.20;;
37593;SDS011;23441;50.856;6.076;2022-08-02T05:33:09;0.20;;;0.20;;
37593;SDS011;23441;50.856;6.076;2022-08-02T05:35:35;0.20;;;0.20;;
37593;SDS011;23441;50.856;6.076;2022-08-02T05:38:01;0.20;;;0.20;;
37593;SDS011;23441;50.856;6.076;2022-08-02T05:40:27;0.20;;;0.20;;
37593;SDS011;23441;50.856;6.076;2022-08-02T05:42:53;0.20;;;0.20;;
37593;SDS011;23441;50.856;6.076;2022-08-02T05:45:20;0.20;;;0.20;;
37593;SDS011;23441;50.856;6.076;2022-08-02T05:47:46;0.20;;;0.20;;
37593;SDS011;23441;50.856;6.076;2022-08-02T05:50:12;0.20;;;0.20;;
37593;SDS011;23441;50.856;6.076;2022-08-02T05:52:45;0.20;;;0.20;;
37593;SDS011;23441;50.856;6.076;2022-08-02T05:55:25;0.20;;;0.20;;
37593;SDS011;23441;50.856;6.076;2022-08-02T05:58:12;0.20;;;0.20;;
37593;SDS011;23441;50.856;6.076;2022-08-02T06:00:48;0.20;;;0.20;;
37593;SDS011;23441;50.856;6.076;2022-08-02T06:03:22;0.20;;;0.20;;
37593;SDS011;23441;50.856;6.076;2022-08-02T06:05:58;0.20;;;0.20;;
37593;SDS011;23441;50.856;6.076;2022-08-02T06:08:41;0.35;;;0.35;;
37593;SDS011;23441;50.856;6.076;2022-08-02T06:11:15;0.20;;;0.20;;
37593;SDS011;23441;50.856;6.076;2022-08-02T06:13:46;0.20;;;0.20;;
37593;SDS011;23441;50.856;6.076;2022-08-02T06:16:13;0.20;;;0.20;;
37593;SDS011;23441;50.856;6.076;2022-08-02T06:18:43;0.10;;;0.10;;
37593;SDS011;23441;50.856;6.076;2022-08-02T06:21:09;0.20;;;0.20;;
37593;SDS011;23441;50.856;6.076;2022-08-02T06:23:39;0.40;;;0.40;;
37593;SDS011;23441;50.856;6.076;2022-08-02T06:26:07;0.10;;;0.10;;
37593;SDS011;23441;50.856;6.076;2022-08-02T06:28:37;0.10;;;0.10;;
37593;SDS011;23441;50.856;6.076;2022-08-02T06:31:06;0.10;;;0.10;;
37593;SDS011;23441;50.856;6.076;2022-08-02T06:33:33;0.10;;;0.10;;
37593;SDS011;23441;50.856;6.076;2022-08-02T06:36:02;5.03;;;3.33;;
37593;SDS011;23441;50.856;6.076;2022-08-02T06:38:33;3.30;;;2.70;;
37593;SDS011;23441;50.856;6.076;2022-08-02T06:41:10;5.00;;;3.20;;
37593;SDS011;23441;50.856;6.076;2022-08-02T06:46:40;2.92;;;2.35;;
37593;SDS011;23441;50.856;6.076;2022-08-02T06:49:06;6.22;;;2.83;;
37593;SDS011;23441;50.856;6.076;2022-08-02T06:51:33;6.93;;;2.47;;
37593;SDS011;23441;50.856;6.076;2022-08-02T06:53:58;4.70;;;2.63;;
37593;SDS011;23441;50.856;6.076;2022-08-02T06:56:24;2.95;;;2.30;;
37593;SDS011;23441;50.856;6.076;2022-08-02T06:58:50;4.35;;;2.50;;
37593;SDS011;23441;50.856;6.076;2022-08-02T07:01:17;4.00;;;2.70;;
37593;SDS011;23441;50.856;6.076;2022-08-02T07:03:44;3.47;;;2.25;;
37593;SDS011;23441;50.856;6.076;2022-08-02T07:06:10;3.35;;;2.22;;
37593;SDS011;23441;50.856;6.076;2022-08-02T07:08:36;2.70;;;2.50;;
37593;SDS011;23441;50.856;6.076;2022-08-02T07:11:03;4.68;;;2.25;;
37593;SDS011;23441;50.856;6.076;2022-08-02T07:13:30;3.13;;;2.17;;
37593;SDS011;23441;50.856;6.076;2022-08-02T07:15:56;3.42;;;2.40;;
37593;SDS011;23441;50.856;6.076;2022-08-02T07:18:23;3.30;;;2.50;;
37593;SDS011;23441;50.856;6.076;2022-08-02T07:20:49;3.35;;;2.20;;
37593;SDS011;23441;50.856;6.076;2022-08-02T07:23:15;5.25;;;2.38;;
37593;SDS011;23441;50.856;6.076;2022-08-02T07:25:41;2.63;;;2.40;;
37593;SDS011;23441;50.856;6.076;2022-08-02T07:28:09;4.82;;;2.72;;
37593;SDS011;23441;50.856;6.076;2022-08-02T07:30:35;4.18;;;2.85;;
37593;SDS011;23441;50.856;6.076;2022-08-02T07:33:03;7.18;;;3.03;;
37593;SDS011;23441;50.856;6.076;2022-08-02T07:35:30;4.45;;;3.10;;
37593;SDS011;23441;50.856;6.076;2022-08-02T07:37:56;4.38;;;3.33;;
37593;SDS011;23441;50.856;6.076;2022-08-02T07:40:23;3.22;;;2.70;;
37593;SDS011;23441;50.856;6.076;2022-08-02T07:42:50;6.13;;;2.97;;
37593;SDS011;23441;50.856;6.076;2022-08-02T07:45:19;6.10;;;2.78;;
37593;SDS011;23441;50.856;6.076;2022-08-02T07:47:46;0.28;;;0.28;;
37593;SDS011;23441;50.856;6.076;2022-08-02T07:50:14;0.10;;;0.10;;
37593;SDS011;23441;50.856;6.076;2022-08-02T07:52:42;1.45;;;0.40;;
37593;SDS011;23441;50.856;6.076;2022-08-02T07:55:09;0.00;;;0.00;;
37593;SDS011;23441;50.856;6.076;2022-08-02T07:57:38;0.00;;;0.00;;
37593;SDS011;23441;50.856;6.076;2022-08-02T08:00:05;0.32;;;0.32;;
37593;SDS011;23441;50.856;6.076;2022-08-02T08:02:36;0.35;;;0.35;;
37593;SDS011;23441;50.856;6.076;2022-08-02T08:05:02;0.00;;;0.00;;
37593;SDS011;23441;50.856;6.076;2022-08-02T08:07:28;0.30;;;0.20;;
37593;SDS011;23441;50.856;6.076;2022-08-02T08:09:54;1.40;;;0.75;;
37593;SDS011;23441;50.856;6.076;2022-08-02T08:12:20;0.10;;;0.10;;
37593;SDS011;23441;50.856;6.076;2022-08-02T08:14:46;0.20;;;0.20;;
37593;SDS011;23441;50.856;6.076;2022-08-02T08:17:12;0.13;;;0.13;;
37593;SDS011;23441;50.856;6.076;2022-08-02T08:19:38;0.10;;;0.10;;
37593;SDS011;23441;50.856;6.076;2022-08-02T08:22:04;0.10;;;0.10;;
37593;SDS011;23441;50.856;6.076;2022-08-02T08:24:30;0.10;;;0.10;;
37593;SDS011;23441;50.856;6.076;2022-08-02T08:26:56;0.70;;;0.70;;
37593;SDS011;23441;50.856;6.076;2022-08-02T08:29:22;0.10;;;0.10;;
37593;SDS011;23441;50.856;6.076;2022-08-02T08:31:50;0.10;;;0.10;;
37593;SDS011;23441;50.856;6.076;2022-08-02T08:34:16;1.13;;;0.80;;
37593;SDS011;23441;50.856;6.076;2022-08-02T08:36:42;0.10;;;0.10;;
37593;SDS011;23441;50.856;6.076;2022-08-02T08:39:08;0.10;;;0.10;;
37593;SDS011;23441;50.856;6.076;2022-08-02T08:41:35;0.60;;;0.60;;
37593;SDS011;23441;50.856;6.076;2022-08-02T08:44:01;0.38;;;0.38;;
37593;SDS011;23441;50.856;6.076;2022-08-02T08:46:29;0.45;;;0.45;;
37593;SDS011;23441;50.856;6.076;2022-08-02T08:49:00;0.68;;;0.68;;
37593;SDS011;23441;50.856;6.076;2022-08-02T08:51:51;4.75;;;2.65;;
37593;SDS011;23441;50.856;6.076;2022-08-02T08:54:21;4.75;;;1.98;;
37593;SDS011;23441;50.856;6.076;2022-08-02T08:56:52;3.88;;;2.28;;
37593;SDS011;23441;50.856;6.076;2022-08-02T08:59:19;3.13;;;2.35;;
37593;SDS011;23441;50.856;6.076;2022-08-02T09:01:45;3.00;;;2.35;;
37593;SDS011;23441;50.856;6.076;2022-08-02T09:04:13;2.53;;;2.10;;
37593;SDS011;23441;50.856;6.076;2022-08-02T09:06:39;3.17;;;2.58;;
37593;SDS011;23441;50.856;6.076;2022-08-02T09:09:05;3.75;;;2.60;;
37593;SDS011;23441;50.856;6.076;2022-08-02T09:11:31;3.70;;;2.05;;
37593;SDS011;23441;50.856;6.076;2022-08-02T09:13:58;5.70;;;2.60;;
37593;SDS011;23441;50.856;6.076;2022-08-02T09:16:37;6.80;;;2.30;;
37593;SDS011;23441;50.856;6.076;2022-08-02T09:19:18;2.97;;;2.03;;
37593;SDS011;23441;50.856;6.076;2022-08-02T09:21:51;6.00;;;2.38;;
37593;SDS011;23441;50.856;6.076;2022-08-02T09:24:27;6.90;;;2.83;;
37593;SDS011;23441;50.856;6.076;2022-08-02T09:26:53;4.15;;;2.40;;
37593;SDS011;23441;50.856;6.076;2022-08-02T09:29:23;4.15;;;2.15;;
37593;SDS011;23441;50.856;6.076;2022-08-02T09:31:49;2.70;;;2.10;;
37593;SDS011;23441;50.856;6.076;2022-08-02T09:34:16;2.90;;;2.10;;
37593;SDS011;23441;50.856;6.076;2022-08-02T09:36:43;2.40;;;2.20;;
37593;SDS011;23441;50.856;6.076;2022-08-02T09:39:12;3.90;;;2.17;;
37593;SDS011;23441;50.856;6.076;2022-08-02T09:41:41;4.88;;;1.88;;
37593;SDS011;23441;50.856;6.076;2022-08-02T09:44:13;2.30;;;2.10;;
37593;SDS011;23441;50.856;6.076;2022-08-02T09:46:42;4.32;;;2.40;;
37593;SDS011;23441;50.856;6.076;2022-08-02T09:51:39;3.30;;;2.30;;
37593;SDS011;23441;50.856;6.076;2022-08-02T09:54:15;4.00;;;2.40;;
37593;SDS011;23441;50.856;6.076;2022-08-02T09:56:50;4.18;;;2.25;;
37593;SDS011;23441;50.856;6.076;2022-08-02T09:59:20;3.53;;;2.13;;
37593;SDS011;23441;50.856;6.076;2022-08-02T10:01:49;4.38;;;2.10;;
37593;SDS011;23441;50.856;6.076;2022-08-02T10:04:18;4.68;;;2.35;;
37593;SDS011;23441;50.856;6.076;2022-08-02T10:06:47;5.13;;;2.70;;
37593;SDS011;23441;50.856;6.076;2022-08-02T10:09:14;3.22;;;2.72;;
37593;SDS011;23441;50.856;6.076;2022-08-02T10:11:41;0.10;;;0.10;;
37593;SDS011;23441;50.856;6.076;2022-08-02T10:14:08;0.47;;;0.47;;
37593;SDS011;23441;50.856;6.076;2022-08-02T10:16:43;0.30;;;0.30;;
37593;SDS011;23441;50.856;6.076;2022-08-02T10:19:09;0.10;;;0.10;;
37593;SDS011;23441;50.856;6.076;2022-08-02T10:21:37;0.10;;;0.10;;
37593;SDS011;23441;50.856;6.076;2022-08-02T10:24:14;0.10;;;0.10;;
37593;SDS011;23441;50.856;6.076;2022-08-02T10:26:58;0.10;;;0.10;;
37593;SDS011;23441;50.856;6.076;2022-08-02T10:29:35;3.20;;;1.85;;
37593;SDS011;23441;50.856;6.076;2022-08-02T10:32:04;2.83;;;2.63;;
37593;SDS011;23441;50.856;6.076;2022-08-02T10:34:40;4.15;;;2.78;;
37593;SDS011;23441;50.856;6.076;2022-08-02T10:37:13;4.22;;;2.90;;
37593;SDS011;23441;50.856;6.076;2022-08-02T10:39:41;5.63;;;2.55;;
37593;SDS011;23441;50.856;6.076;2022-08-02T10:42:09;3.13;;;2.50;;
37593;SDS011;23441;50.856;6.076;2022-08-02T10:44:37;5.60;;;2.30;;
37593;SDS011;23441;50.856;6.076;2022-08-02T10:52:23;4.68;;;2.65;;
37593;SDS011;23441;50.856;6.076;2022-08-02T10:55:08;4.00;;;2.58;;
37593;SDS011;23441;50.856;6.076;2022-08-02T10:57:35;6.28;;;2.60;;
37593;SDS011;23441;50.856;6.076;2022-08-02T11:05:11;4.20;;;2.38;;
37593;SDS011;23441;50.856;6.076;2022-08-02T11:07:44;0.13;;;0.10;;
37593;SDS011;23441;50.856;6.076;2022-08-02T11:12:57;0.00;;;0.00;;
37593;SDS011;23441;50.856;6.076;2022-08-02T11:15:28;0.08;;;0.08;;
37593;SDS011;23441;50.856;6.076;2022-08-02T11:17:55;0.20;;;0.20;;
37593;SDS011;23441;50.856;6.076;2022-08-02T11:20:25;0.05;;;0.05;;
37593;SDS011;23441;50.856;6.076;2022-08-02T11:22:52;0.20;;;0.20;;
37593;SDS011;23441;50.856;6.076;2022-08-02T11:27:48;0.20;;;0.20;;
37593;SDS011;23441;50.856;6.076;2022-08-02T11:30:16;0.38;;;0.38;;
37593;SDS011;23441;50.856;6.076;2022-08-02T11:32:42;0.20;;;0.20;;
37593;SDS011;23441;50.856;6.076;2022-08-02T11:35:09;2.53;;;0.57;;
37593;SDS011;23441;50.856;6.076;2022-08-02T11:37:39;0.20;;;0.20;;
37593;SDS011;23441;50.856;6.076;2022-08-02T11:40:12;0.98;;;0.93;;
37593;SDS011;23441;50.856;6.076;2022-08-02T11:42:42;0.20;;;0.20;;
37593;SDS011;23441;50.856;6.076;2022-08-02T11:45:14;0.38;;;0.38;;
37593;SDS011;23441;50.856;6.076;2022-08-02T11:47:48;0.30;;;0.25;;
37593;SDS011;23441;50.856;6.076;2022-08-02T11:50:16;0.00;;;0.00;;
37593;SDS011;23441;50.856;6.076;2022-08-02T11:52:44;0.10;;;0.10;;
37593;SDS011;23441;50.856;6.076;2022-08-02T11:55:11;0.10;;;0.10;;
37593;SDS011;23441;50.856;6.076;2022-08-02T11:57:40;0.32;;;0.32;;
37593;SDS011;23441;50.856;6.076;2022-08-02T12:00:13;0.10;;;0.10;;
37593;SDS011;23441;50.856;6.076;2022-08-02T12:02:45;0.47;;;0.47;;
37593;SDS011;23441;50.856;6.076;2022-08-02T12:05:16;1.65;;;1.55;;
37593;SDS011;23441;50.856;6.076;2022-08-02T12:07:44;0.20;;;0.20;;
37593;SDS011;23441;50.856;6.076;2022-08-02T12:10:15;0.00;;;0.00;;
37593;SDS011;23441;50.856;6.076;2022-08-02T12:15:14;0.00;;;0.00;;
37593;SDS011;23441;50.856;6.076;2022-08-02T12:17:55;0.08;;;0.08;;
37593;SDS011;23441;50.856;6.076;2022-08-02T12:20:40;0.10;;;0.10;;
37593;SDS011;23441;50.856;6.076;2022-08-02T12:23:06;0.00;;;0.00;;
37593;SDS011;23441;50.856;6.076;2022-08-02T12:25:32;0.13;;;0.13;;
37593;SDS011;23441;50.856;6.076;2022-08-02T12:28:15;0.10;;;0.10;;
37593;SDS011;23441;50.856;6.076;2022-08-02T12:30:57;0.00;;;0.00;;
37593;SDS011;23441;50.856;6.076;2022-08-02T12:33:26;0.05;;;0.05;;
37593;SDS011;23441;50.856;6.076;2022-08-02T12:35:57;0.00;;;0.00;;
37593;SDS011;23441;50.856;6.076;2022-08-02T12:38:23;0.00;;;0.00;;
37593;SDS011;23441;50.856;6.076;2022-08-02T12:40:49;0.10;;;0.10;;
37593;SDS011;23441;50.856;6.076;2022-08-02T12:43:20;0.30;;;0.30;;
37593;SDS011;23441;50.856;6.076;2022-08-02T12:45:51;0.00;;;0.00;;
37593;SDS011;23441;50.856;6.076;2022-08-02T12:48:35;0.00;;;0.00;;
37593;SDS011;23441;50.856;6.076;2022-08-02T12:51:17;0.35;;;0.35;;
37593;SDS011;23441;50.856;6.076;2022-08-02T12:53:44;0.40;;;0.17;;
37593;SDS011;23441;50.856;6.076;2022-08-02T12:56:10;0.40;;;0.40;;
37593;SDS011;23441;50.856;6.076;2022-08-02T12:58:48;0.52;;;0.52;;
37593;SDS011;23441;50.856;6.076;2022-08-02T13:01:22;0.10;;;0.10;;
37593;SDS011;23441;50.856;6.076;2022-08-02T13:03:51;0.20;;;0.20;;
37593;SDS011;23441;50.856;6.076;2022-08-02T13:06:18;0.10;;;0.10;;
37593;SDS011;23441;50.856;6.076;2022-08-02T13:08:46;0.17;;;0.17;;
37593;SDS011;23441;50.856;6.076;2022-08-02T13:11:13;0.10;;;0.10;;
37593;SDS011;23441;50.856;6.076;2022-08-02T13:13:39;0.00;;;0.00;;
37593;SDS011;23441;50.856;6.076;2022-08-02T13:16:06;0.35;;;0.35;;
37593;SDS011;23441;50.856;6.076;2022-08-02T13:18:34;0.00;;;0.00;;
37593;SDS011;23441;50.856;6.076;2022-08-02T13:21:00;0.00;;;0.00;;
37593;SDS011;23441;50.856;6.076;2022-08-02T13:23:29;0.00;;;0.00;;
37593;SDS011;23441;50.856;6.076;2022-08-02T13:25:55;0.10;;;0.10;;
37593;SDS011;23441;50.856;6.076;2022-08-02T13:28:21;4.50;;;2.30;;
37593;SDS011;23441;50.856;6.076;2022-08-02T13:30:48;3.20;;;1.90;;
37593;SDS011;23441;50.856;6.076;2022-08-02T13:33:14;2.75;;;1.83;;
37593;SDS011;23441;50.856;6.076;2022-08-02T13:35:42;2.63;;;1.70;;
37593;SDS011;23441;50.856;6.076;2022-08-02T13:38:09;4.90;;;1.83;;
37593;SDS011;23441;50.856;6.076;2022-08-02T13:40:35;2.83;;;2.00;;
37593;SDS011;23441;50.856;6.076;2022-08-02T13:43:21;4.85;;;2.20;;
37593;SDS011;23441;50.856;6.076;2022-08-02T13:45:47;4.93;;;1.83;;
37593;SDS011;23441;50.856;6.076;2022-08-02T13:48:13;4.65;;;2.10;;
37593;SDS011;23441;50.856;6.076;2022-08-02T13:50:39;2.63;;;1.83;;
37593;SDS011;23441;50.856;6.076;2022-08-02T13:53:06;2.90;;;1.77;;
37593;SDS011;23441;50.856;6.076;2022-08-02T13:55:32;5.85;;;2.20;;
37593;SDS011;23441;50.856;6.076;2022-08-02T13:57:58;4.78;;;1.98;;
37593;SDS011;23441;50.856;6.076;2022-08-02T14:00:23;4.93;;;1.70;;
37593;SDS011;23441;50.856;6.076;2022-08-02T14:02:49;3.50;;;1.70;;
37593;SDS011;23441;50.856;6.076;2022-08-02T14:05:15;1.77;;;1.67;;
37593;SDS011;23441;50.856;6.076;2022-08-02T14:07:41;4.47;;;2.28;;
37593;SDS011;23441;50.856;6.076;2022-08-02T14:10:07;4.57;;;2.00;;
37593;SDS011;23441;50.856;6.076;2022-08-02T14:12:34;2.35;;;1.75;;
37593;SDS011;23441;50.856;6.076;2022-08-02T14:15:00;0.00;;;0.00;;
37593;SDS011;23441;50.856;6.076;2022-08-02T14:17:25;0.15;;;0.15;;
37593;SDS011;23441;50.856;6.076;2022-08-02T14:19:52;0.15;;;0.10;;
37593;SDS011;23441;50.856;6.076;2022-08-02T14:22:17;3.97;;;2.00;;
37593;SDS011;23441;50.856;6.076;2022-08-02T14:24:44;4.53;;;1.90;;
37593;SDS011;23441;50.856;6.076;2022-08-02T14:27:09;4.53;;;2.00;;
37593;SDS011;23441;50.856;6.076;2022-08-02T14:29:36;3.30;;;1.92;;
37593;SDS011;23441;50.856;6.076;2022-08-02T14:32:02;0.10;;;0.10;;
37593;SDS011;23441;50.856;6.076;2022-08-02T14:34:28;0.00;;;0.00;;
37593;SDS011;23441;50.856;6.076;2022-08-02T14:36:55;0.03;;;0.03;;
37593;SDS011;23441;50.856;6.076;2022-08-02T14:39:21;0.00;;;0.00;;
37593;SDS011;23441;50.856;6.076;2022-08-02T14:41:47;0.10;;;0.10;;
37593;SDS011;23441;50.856;6.076;2022-08-02T14:44:13;0.00;;;0.00;;
37593;SDS011;23441;50.856;6.076;2022-08-02T14:46:39;0.08;;;0.08;;
37593;SDS011;23441;50.856;6.076;2022-08-02T14:49:06;0.10;;;0.10;;
37593;SDS011;23441;50.856;6.076;2022-08-02T14:51:35;0.10;;;0.10;;
37593;SDS011;23441;50.856;6.076;2022-08-02T14:54:05;0.00;;;0.00;;
37593;SDS011;23441;50.856;6.076;2022-08-02T14:56:32;0.65;;;0.30;;
37593;SDS011;23441;50.856;6.076;2022-08-02T14:58:58;0.20;;;0.20;;
37593;SDS011;23441;50.856;6.076;2022-08-02T15:01:24;0.10;;;0.10;;
37593;SDS011;23441;50.856;6.076;2022-08-02T15:03:50;0.40;;;0.40;;
37593;SDS011;23441;50.856;6.076;2022-08-02T15:06:16;0.20;;;0.20;;
37593;SDS011;23441;50.856;6.076;2022-08-02T15:08:42;0.00;;;0.00;;
37593;SDS011;23441;50.856;6.076;2022-08-02T15:11:09;0.10;;;0.10;;
37593;SDS011;23441;50.856;6.076;2022-08-02T15:13:35;0.10;;;0.10;;
37593;SDS011;23441;50.856;6.076;2022-08-02T15:16:01;0.20;;;0.17;;
37593;SDS011;23441;50.856;6.076;2022-08-02T15:18:27;0.00;;;0.00;;
37593;SDS011;23441;50.856;6.076;2022-08-02T15:20:53;0.05;;;0.05;;
37593;SDS011;23441;50.856;6.076;2022-08-02T15:23:19;0.10;;;0.10;;
37593;SDS011;23441;50.856;6.076;2022-08-02T15:25:46;0.00;;;0.00;;
37593;SDS011;23441;50.856;6.076;2022-08-02T15:28:12;0.00;;;0.00;;
37593;SDS011;23441;50.856;6.076;2022-08-02T15:30:38;0.00;;;0.00;;
37593;SDS011;23441;50.856;6.076;2022-08-02T15:33:04;0.00;;;0.00;;
37593;SDS011;23441;50.856;6.076;2022-08-02T15:35:30;0.32;;;0.32;;
37593;SDS011;23441;50.856;6.076;2022-08-02T15:37:57;0.20;;;0.20;;
37593;SDS011;23441;50.856;6.076;2022-08-02T15:40:23;0.00;;;0.00;;